sensor_id;sensor_type;location;lat;lon;timestamp;pressure;altitude;pressure_sealevel;temperature;humidity
7824;BME280;3957;48.61947800;9.05303100;2023-07-09T00:00:00;96476.69;;;18.81;87.37
7824;BME280;3957;48.61947800;9.05303100;2023-07-09T00:01:01;96477.50;;;18.82;87.39
7824;BME280;3957;48.61947800;9.05303100;2023-07-09T00:02:03;96482.13;;;18.81;87.40
7824;BME280;3957;48.61947800;9.05303100;2023-07-09T00:03:05;96478.81;;;18.79;87.91
7824;BME280;3957;48.61947800;9.05303100;2023-07-09T00:04:10;96482.88;;;18.77;88.33
7824;BME280;3957;48.61947800;9.05303100;2023-07-09T00:05:14;96475.56;;;18.77;88.79
7824;BME280;3957;48.61947800;9.05303100;2023-07-09T00:06:17;96474.97;;;18.75;89.37
7824;BME280;3957;48.61947800;9.05303100;2023-07-09T00:07:30;96482.53;;;18.73;89.60
7824;BME280;3957;48.61947800;9.05303100;2023-07-09T00:08:32;96477.38;;;18.72;89.53
7824;BME280;3957;48.61947800;9.05303100;2023-07-09T00:09:35;96481.13;;;18.70;89.29
7824;BME280;3957;48.61947800;9.05303100;2023-07-09T00:10:36;96480.31;;;18.70;89.46
7824;BME280;3957;48.61947800;9.05303100;2023-07-09T00:11:38;96480.31;;;18.70;89.66
7824;BME280;3957;48.61947800;9.05303100;2023-07-09T00:12:39;96480.78;;;18.67;90.04
7824;BME280;3957;48.61947800;9.05303100;2023-07-09T00:13:41;96482.69;;;18.66;90.25
7824;BME280;3957;48.61947800;9.05303100;2023-07-09T00:14:43;96480.47;;;18.63;90.69
7824;BME280;3957;48.61947800;9.05303100;2023-07-09T00:15:45;96479.88;;;18.61;90.17
7824;BME280;3957;48.61947800;9.05303100;2023-07-09T00:16:47;96481.78;;;18.61;90.34
7824;BME280;3957;48.61947800;9.05303100;2023-07-09T00:17:50;96479.88;;;18.61;90.73
7824;BME280;3957;48.61947800;9.05303100;2023-07-09T00:18:52;96478.28;;;18.60;90.51
7824;BME280;3957;48.61947800;9.05303100;2023-07-09T00:19:54;96478.03;;;18.62;90.35
7824;BME280;3957;48.61947800;9.05303100;2023-07-09T00:20:55;96477.78;;;18.63;90.00
7824;BME280;3957;48.61947800;9.05303100;2023-07-09T00:21:57;96477.53;;;18.65;89.72
7824;BME280;3957;48.61947800;9.05303100;2023-07-09T00:22:59;96481.88;;;18.66;89.88
7824;BME280;3957;48.61947800;9.05303100;2023-07-09T00:24:01;96485.16;;;18.68;89.88
7824;BME280;3957;48.61947800;9.05303100;2023-07-09T00:25:09;96479.47;;;18.69;89.47
7824;BME280;3957;48.61947800;9.05303100;2023-07-09T00:26:16;96480.06;;;18.72;89.94
7824;BME280;3957;48.61947800;9.05303100;2023-07-09T00:27:19;96482.53;;;18.73;90.09
7824;BME280;3957;48.61947800;9.05303100;2023-07-09T00:28:22;96477.94;;;18.74;89.54
7824;BME280;3957;48.61947800;9.05303100;2023-07-09T00:29:23;96485.00;;;18.75;89.54
7824;BME280;3957;48.61947800;9.05303100;2023-07-09T00:30:25;96482.28;;;18.75;89.63
7824;BME280;3957;48.61947800;9.05303100;2023-07-09T00:31:26;96484.75;;;18.76;88.96
7824;BME280;3957;48.61947800;9.05303100;2023-07-09T00:32:28;96482.88;;;18.77;88.29
7824;BME280;3957;48.61947800;9.05303100;2023-07-09T00:33:30;96487.22;;;18.78;87.94
7824;BME280;3957;48.61947800;9.05303100;2023-07-09T00:34:35;96486.41;;;18.77;88.12
7824;BME280;3957;48.61947800;9.05303100;2023-07-09T00:35:36;96482.63;;;18.78;88.20
7824;BME280;3957;48.61947800;9.05303100;2023-07-09T00:36:42;96488.59;;;18.80;87.84
7824;BME280;3957;48.61947800;9.05303100;2023-07-09T00:37:45;96479.97;;;18.83;87.73
7824;BME280;3957;48.61947800;9.05303100;2023-07-09T00:38:47;96479.72;;;18.85;87.60
7824;BME280;3957;48.61947800;9.05303100;2023-07-09T00:39:50;96486.56;;;18.88;87.42
7824;BME280;3957;48.61947800;9.05303100;2023-07-09T00:41:04;96474.09;;;18.86;87.53
7824;BME280;3957;48.61947800;9.05303100;2023-07-09T00:42:15;96484.94;;;18.86;87.54
7824;BME280;3957;48.61947800;9.05303100;2023-07-09T00:43:19;96475.16;;;18.85;87.70
7824;BME280;3957;48.61947800;9.05303100;2023-07-09T00:44:25;96481.63;;;18.84;87.71
7824;BME280;3957;48.61947800;9.05303100;2023-07-09T00:45:31;96485.75;;;18.87;87.77
7824;BME280;3957;48.61947800;9.05303100;2023-07-09T00:47:48;96483.63;;;18.89;87.92
7824;BME280;3957;48.61947800;9.05303100;2023-07-09T00:49:01;96484.72;;;18.88;88.40
7824;BME280;3957;48.61947800;9.05303100;2023-07-09T00:50:14;96482.00;;;18.88;88.45
7824;BME280;3957;48.61947800;9.05303100;2023-07-09T00:51:20;96486.09;;;18.91;88.02
7824;BME280;3957;48.61947800;9.05303100;2023-07-09T00:52:29;96487.81;;;18.97;86.86
7824;BME280;3957;48.61947800;9.05303100;2023-07-09T00:53:34;96486.84;;;19.03;86.42
7824;BME280;3957;48.61947800;9.05303100;2023-07-09T00:54:39;96492.06;;;19.10;85.89
7824;BME280;3957;48.61947800;9.05303100;2023-07-09T00:55:45;96485.91;;;19.14;85.50
7824;BME280;3957;48.61947800;9.05303100;2023-07-09T00:56:53;96485.41;;;19.17;85.31
7824;BME280;3957;48.61947800;9.05303100;2023-07-09T00:58:00;96481.38;;;19.20;85.34
7824;BME280;3957;48.61947800;9.05303100;2023-07-09T00:59:07;96484.91;;;19.20;85.49
7824;BME280;3957;48.61947800;9.05303100;2023-07-09T01:00:12;96485.75;;;19.21;85.41
7824;BME280;3957;48.61947800;9.05303100;2023-07-09T01:01:18;96487.38;;;19.22;85.08
7824;BME280;3957;48.61947800;9.05303100;2023-07-09T01:02:21;96490.66;;;19.24;84.98
7824;BME280;3957;48.61947800;9.05303100;2023-07-09T01:03:29;96495.84;;;19.26;84.79
7824;BME280;3957;48.61947800;9.05303100;2023-07-09T01:04:34;96493.13;;;19.26;84.62
7824;BME280;3957;48.61947800;9.05303100;2023-07-09T01:05:38;96490.97;;;19.28;84.58
7824;BME280;3957;48.61947800;9.05303100;2023-07-09T01:06:44;96491.56;;;19.30;84.40
7824;BME280;3957;48.61947800;9.05303100;2023-07-09T01:07:46;96487.72;;;19.26;85.28
7824;BME280;3957;48.61947800;9.05303100;2023-07-09T01:08:50;96492.00;;;19.22;86.28
7824;BME280;3957;48.61947800;9.05303100;2023-07-09T01:09:55;96489.44;;;19.15;87.05
7824;BME280;3957;48.61947800;9.05303100;2023-07-09T01:10:58;96499.41;;;19.09;87.82
7824;BME280;3957;48.61947800;9.05303100;2023-07-09T01:12:05;96493.31;;;19.02;88.87
7824;BME280;3957;48.61947800;9.05303100;2023-07-09T01:13:09;96495.94;;;18.97;90.04
7824;BME280;3957;48.61947800;9.05303100;2023-07-09T01:14:13;96505.31;;;18.89;90.28
7824;BME280;3957;48.61947800;9.05303100;2023-07-09T01:15:18;96502.97;;;18.81;89.88
7824;BME280;3957;48.61947800;9.05303100;2023-07-09T01:16:21;96514.25;;;18.73;89.51
7824;BME280;3957;48.61947800;9.05303100;2023-07-09T01:17:27;96504.13;;;18.68;89.98
7824;BME280;3957;48.61947800;9.05303100;2023-07-09T01:18:29;96502.41;;;18.62;89.95
7824;BME280;3957;48.61947800;9.05303100;2023-07-09T01:19:38;96498.78;;;18.56;90.77
7824;BME280;3957;48.61947800;9.05303100;2023-07-09T01:20:44;96508.47;;;18.52;91.74
7824;BME280;3957;48.61947800;9.05303100;2023-07-09T01:21:47;96494.03;;;18.46;92.48
7824;BME280;3957;48.61947800;9.05303100;2023-07-09T01:22:50;96502.88;;;18.42;92.99
7824;BME280;3957;48.61947800;9.05303100;2023-07-09T01:23:56;96500.91;;;18.37;93.08
7824;BME280;3957;48.61947800;9.05303100;2023-07-09T01:25:08;96498.44;;;18.35;92.18
7824;BME280;3957;48.61947800;9.05303100;2023-07-09T01:26:13;96496.03;;;18.39;91.32
7824;BME280;3957;48.61947800;9.05303100;2023-07-09T01:27:16;96495.56;;;18.42;90.88
7824;BME280;3957;48.61947800;9.05303100;2023-07-09T01:28:18;96499.34;;;18.41;90.91
7824;BME280;3957;48.61947800;9.05303100;2023-07-09T01:29:21;96499.34;;;18.41;91.19
7824;BME280;3957;48.61947800;9.05303100;2023-07-09T01:30:30;96495.78;;;18.41;91.39
7824;BME280;3957;48.61947800;9.05303100;2023-07-09T01:31:32;96500.16;;;18.42;91.39
7824;BME280;3957;48.61947800;9.05303100;2023-07-09T01:32:37;96496.63;;;18.41;91.77
7824;BME280;3957;48.61947800;9.05303100;2023-07-09T01:33:40;96493.34;;;18.39;92.14
7824;BME280;3957;48.61947800;9.05303100;2023-07-09T01:34:41;96494.41;;;18.38;92.76
7824;BME280;3957;48.61947800;9.05303100;2023-07-09T01:35:44;96497.13;;;18.38;92.92
7824;BME280;3957;48.61947800;9.05303100;2023-07-09T01:36:45;96492.75;;;18.37;93.31
7824;BME280;3957;48.61947800;9.05303100;2023-07-09T01:37:47;96489.47;;;18.35;93.91
7824;BME280;3957;48.61947800;9.05303100;2023-07-09T01:38:52;96490.56;;;18.34;93.96
7824;BME280;3957;48.61947800;9.05303100;2023-07-09T01:39:54;96494.06;;;18.34;94.21
7824;BME280;3957;48.61947800;9.05303100;2023-07-09T01:40:57;96492.41;;;18.33;93.44
7824;BME280;3957;48.61947800;9.05303100;2023-07-09T01:41:59;96489.72;;;18.33;92.99
7824;BME280;3957;48.61947800;9.05303100;2023-07-09T01:43:01;96487.00;;;18.33;92.78
7824;BME280;3957;48.61947800;9.05303100;2023-07-09T01:44:03;96490.56;;;18.34;92.44
7824;BME280;3957;48.61947800;9.05303100;2023-07-09T01:45:07;96487.59;;;18.35;92.39
7824;BME280;3957;48.61947800;9.05303100;2023-07-09T01:46:10;96485.69;;;18.36;92.43
7824;BME280;3957;48.61947800;9.05303100;2023-07-09T01:47:13;96487.09;;;18.39;92.40
7824;BME280;3957;48.61947800;9.05303100;2023-07-09T01:48:16;96496.88;;;18.40;92.18
7824;BME280;3957;48.61947800;9.05303100;2023-07-09T01:49:17;96487.09;;;18.39;91.92
7824;BME280;3957;48.61947800;9.05303100;2023-07-09T01:50:20;96490.88;;;18.38;91.74
7824;BME280;3957;48.61947800;9.05303100;2023-07-09T01:51:23;96489.00;;;18.38;91.73
7824;BME280;3957;48.61947800;9.05303100;2023-07-09T01:52:29;96490.06;;;18.37;91.83
7824;BME280;3957;48.61947800;9.05303100;2023-07-09T01:53:31;96490.06;;;18.37;91.79
7824;BME280;3957;48.61947800;9.05303100;2023-07-09T01:54:35;96490.88;;;18.38;91.86
7824;BME280;3957;48.61947800;9.05303100;2023-07-09T01:55:41;96489.47;;;18.35;91.92
7824;BME280;3957;48.61947800;9.05303100;2023-07-09T01:56:43;96486.75;;;18.35;92.88
7824;BME280;3957;48.61947800;9.05303100;2023-07-09T01:57:46;96483.47;;;18.33;93.55
7824;BME280;3957;48.61947800;9.05303100;2023-07-09T01:58:50;96494.31;;;18.33;93.57
7824;BME280;3957;48.61947800;9.05303100;2023-07-09T01:59:53;96487.50;;;18.30;93.83
7824;BME280;3957;48.61947800;9.05303100;2023-07-09T02:00:56;96497.75;;;18.28;93.87
7824;BME280;3957;48.61947800;9.05303100;2023-07-09T02:01:57;96489.28;;;18.25;94.09
7824;BME280;3957;48.61947800;9.05303100;2023-07-09T02:02:59;96493.31;;;18.22;93.95
7824;BME280;3957;48.61947800;9.05303100;2023-07-09T02:04:02;96492.72;;;18.20;93.90
7824;BME280;3957;48.61947800;9.05303100;2023-07-09T02:05:05;96482.63;;;18.15;94.40
7824;BME280;3957;48.61947800;9.05303100;2023-07-09T02:06:07;96485.47;;;18.09;94.94
7824;BME280;3957;48.61947800;9.05303100;2023-07-09T02:07:11;96490.06;;;18.08;95.16
7824;BME280;3957;48.61947800;9.05303100;2023-07-09T02:08:12;96487.00;;;18.05;95.72
7824;BME280;3957;48.61947800;9.05303100;2023-07-09T02:09:14;96485.84;;;18.00;95.67
7824;BME280;3957;48.61947800;9.05303100;2023-07-09T02:10:17;96482.31;;;18.00;95.69
7824;BME280;3957;48.61947800;9.05303100;2023-07-09T02:11:19;96486.09;;;17.99;96.03
7824;BME280;3957;48.61947800;9.05303100;2023-07-09T02:12:21;96488.78;;;17.99;96.52
7824;BME280;3957;48.61947800;9.05303100;2023-07-09T02:13:22;96490.09;;;17.96;96.76
7824;BME280;3957;48.61947800;9.05303100;2023-07-09T02:14:24;96492.81;;;17.96;96.73
7824;BME280;3957;48.61947800;9.05303100;2023-07-09T02:15:26;96492.25;;;17.94;96.41
7824;BME280;3957;48.61947800;9.05303100;2023-07-09T02:16:28;96490.34;;;17.95;96.19
7824;BME280;3957;48.61947800;9.05303100;2023-07-09T02:17:30;96492.25;;;17.94;95.83
7824;BME280;3957;48.61947800;9.05303100;2023-07-09T02:18:32;96493.06;;;17.95;95.84
7824;BME280;3957;48.61947800;9.05303100;2023-07-09T02:19:34;96493.06;;;17.95;95.75
7824;BME280;3957;48.61947800;9.05303100;2023-07-09T02:20:36;96489.84;;;17.98;95.93
7824;BME280;3957;48.61947800;9.05303100;2023-07-09T02:21:37;96490.22;;;18.01;95.29
7824;BME280;3957;48.61947800;9.05303100;2023-07-09T02:22:39;96493.50;;;18.04;94.78
7824;BME280;3957;48.61947800;9.05303100;2023-07-09T02:23:41;96491.72;;;18.09;94.43
7824;BME280;3957;48.61947800;9.05303100;2023-07-09T02:24:43;96494.50;;;18.14;94.12
7824;BME280;3957;48.61947800;9.05303100;2023-07-09T02:25:45;96492.38;;;18.16;94.23
7824;BME280;3957;48.61947800;9.05303100;2023-07-09T02:26:46;96491.09;;;18.19;94.04
7824;BME280;3957;48.61947800;9.05303100;2023-07-09T02:27:48;96497.66;;;18.23;93.98
7824;BME280;3957;48.61947800;9.05303100;2023-07-09T02:28:51;96497.41;;;18.25;93.86
7824;BME280;3957;48.61947800;9.05303100;2023-07-09T02:29:53;96496.81;;;18.23;93.72
7824;BME280;3957;48.61947800;9.05303100;2023-07-09T02:30:56;96495.75;;;18.24;93.93
7824;BME280;3957;48.61947800;9.05303100;2023-07-09T02:31:58;96494.38;;;18.21;94.01
7824;BME280;3957;48.61947800;9.05303100;2023-07-09T02:33:00;96493.78;;;18.19;94.29
7824;BME280;3957;48.61947800;9.05303100;2023-07-09T02:34:02;96488.28;;;18.14;94.70
7824;BME280;3957;48.61947800;9.05303100;2023-07-09T02:35:05;96491.72;;;18.09;95.10
7824;BME280;3957;48.61947800;9.05303100;2023-07-09T02:36:08;96496.78;;;18.06;95.27
7824;BME280;3957;48.61947800;9.05303100;2023-07-09T02:37:09;96499.97;;;18.02;95.47
7824;BME280;3957;48.61947800;9.05303100;2023-07-09T02:38:11;96495.06;;;17.99;95.85
7824;BME280;3957;48.61947800;9.05303100;2023-07-09T02:39:13;96498.47;;;17.95;96.56
7824;BME280;3957;48.61947800;9.05303100;2023-07-09T02:40:16;96498.31;;;17.90;97.06
7824;BME280;3957;48.61947800;9.05303100;2023-07-09T02:41:17;96502.56;;;17.85;97.65
7824;BME280;3957;48.61947800;9.05303100;2023-07-09T02:42:21;96490.38;;;17.83;98.73
7824;BME280;3957;48.61947800;9.05303100;2023-07-09T02:43:24;96497.31;;;17.79;99.48
7824;BME280;3957;48.61947800;9.05303100;2023-07-09T02:44:26;96502.38;;;17.75;100.00
7824;BME280;3957;48.61947800;9.05303100;2023-07-09T02:45:28;96508.53;;;17.71;100.00
7824;BME280;3957;48.61947800;9.05303100;2023-07-09T02:46:29;96505.47;;;17.67;100.00
7824;BME280;3957;48.61947800;9.05303100;2023-07-09T02:47:31;96503.25;;;17.64;100.00
7824;BME280;3957;48.61947800;9.05303100;2023-07-09T02:48:34;96498.75;;;17.58;100.00
7824;BME280;3957;48.61947800;9.05303100;2023-07-09T02:49:37;96500.91;;;17.56;100.00
7824;BME280;3957;48.61947800;9.05303100;2023-07-09T02:50:39;96499.72;;;17.51;100.00
7824;BME280;3957;48.61947800;9.05303100;2023-07-09T02:51:41;96499.13;;;17.49;100.00
7824;BME280;3957;48.61947800;9.05303100;2023-07-09T02:52:42;96508.56;;;17.47;100.00
7824;BME280;3957;48.61947800;9.05303100;2023-07-09T02:53:45;96507.16;;;17.44;100.00
7824;BME280;3957;48.61947800;9.05303100;2023-07-09T02:54:47;96510.91;;;17.43;100.00
7824;BME280;3957;48.61947800;9.05303100;2023-07-09T02:55:49;96515.50;;;17.43;100.00
7824;BME280;3957;48.61947800;9.05303100;2023-07-09T02:56:50;96514.44;;;17.44;100.00
7824;BME280;3957;48.61947800;9.05303100;2023-07-09T02:57:52;96517.13;;;17.44;100.00
7824;BME280;3957;48.61947800;9.05303100;2023-07-09T02:58:54;96513.38;;;17.45;100.00
7824;BME280;3957;48.61947800;9.05303100;2023-07-09T02:59:56;96517.75;;;17.46;100.00
7824;BME280;3957;48.61947800;9.05303100;2023-07-09T03:00:58;96515.28;;;17.44;100.00
7824;BME280;3957;48.61947800;9.05303100;2023-07-09T03:02:00;96512.81;;;17.43;100.00
7824;BME280;3957;48.61947800;9.05303100;2023-07-09T03:03:02;96520.31;;;17.41;100.00
7824;BME280;3957;48.61947800;9.05303100;2023-07-09T03:04:04;96516.19;;;17.38;100.00
7824;BME280;3957;48.61947800;9.05303100;2023-07-09T03:05:06;96517.72;;;17.34;100.00
7824;BME280;3957;48.61947800;9.05303100;2023-07-09T03:06:08;96518.56;;;17.34;100.00
7824;BME280;3957;48.61947800;9.05303100;2023-07-09T03:07:09;96517.72;;;17.34;100.00
7824;BME280;3957;48.61947800;9.05303100;2023-07-09T03:08:11;96518.56;;;17.34;100.00
7824;BME280;3957;48.61947800;9.05303100;2023-07-09T03:09:13;96525.03;;;17.33;100.00
7824;BME280;3957;48.61947800;9.05303100;2023-07-09T03:10:16;96519.63;;;17.33;100.00
7824;BME280;3957;48.61947800;9.05303100;2023-07-09T03:11:18;96521.72;;;17.31;100.00
7824;BME280;3957;48.61947800;9.05303100;2023-07-09T03:12:20;96523.38;;;17.32;100.00
7824;BME280;3957;48.61947800;9.05303100;2023-07-09T03:13:22;96520.19;;;17.36;100.00
7824;BME280;3957;48.61947800;9.05303100;2023-07-09T03:14:24;96525.72;;;17.41;100.00
7824;BME280;3957;48.61947800;9.05303100;2023-07-09T03:15:25;96523.16;;;17.46;100.00
7824;BME280;3957;48.61947800;9.05303100;2023-07-09T03:16:28;96525.72;;;17.53;100.00
7824;BME280;3957;48.61947800;9.05303100;2023-07-09T03:17:31;96519.59;;;17.57;100.00
7824;BME280;3957;48.61947800;9.05303100;2023-07-09T03:18:33;96522.66;;;17.61;100.00
7824;BME280;3957;48.61947800;9.05303100;2023-07-09T03:19:34;96517.34;;;17.66;100.00
7824;BME280;3957;48.61947800;9.05303100;2023-07-09T03:20:38;96521.22;;;17.70;100.00
7824;BME280;3957;48.61947800;9.05303100;2023-07-09T03:21:40;96519.91;;;17.73;100.00
7824;BME280;3957;48.61947800;9.05303100;2023-07-09T03:22:42;96522.97;;;17.76;100.00
7824;BME280;3957;48.61947800;9.05303100;2023-07-09T03:23:43;96517.91;;;17.80;100.00
7824;BME280;3957;48.61947800;9.05303100;2023-07-09T03:24:45;96520.72;;;17.85;99.93
7824;BME280;3957;48.61947800;9.05303100;2023-07-09T03:25:46;96520.47;;;17.87;100.00
7824;BME280;3957;48.61947800;9.05303100;2023-07-09T03:26:48;96522.50;;;17.91;99.80
7824;BME280;3957;48.61947800;9.05303100;2023-07-09T03:27:50;96521.19;;;17.94;99.65
7824;BME280;3957;48.61947800;9.05303100;2023-07-09T03:28:52;96529.16;;;18.00;99.51
7824;BME280;3957;48.61947800;9.05303100;2023-07-09T03:29:54;96520.59;;;18.04;98.99
7824;BME280;3957;48.61947800;9.05303100;2023-07-09T03:30:55;96518.31;;;18.12;98.44
7824;BME280;3957;48.61947800;9.05303100;2023-07-09T03:31:57;96515.72;;;18.17;97.91
7824;BME280;3957;48.61947800;9.05303100;2023-07-09T03:32:59;96523.44;;;18.26;97.57
7824;BME280;3957;48.61947800;9.05303100;2023-07-09T03:34:01;96522.47;;;18.32;97.22
7824;BME280;3957;48.61947800;9.05303100;2023-07-09T03:35:04;96533.97;;;18.39;96.65
7824;BME280;3957;48.61947800;9.05303100;2023-07-09T03:36:05;96534.66;;;18.46;96.22
7824;BME280;3957;48.61947800;9.05303100;2023-07-09T03:37:07;96525.19;;;18.49;95.99
7824;BME280;3957;48.61947800;9.05303100;2023-07-09T03:38:09;96527.66;;;18.50;96.02
7824;BME280;3957;48.61947800;9.05303100;2023-07-09T03:39:12;96529.06;;;18.53;95.68
7824;BME280;3957;48.61947800;9.05303100;2023-07-09T03:40:21;96523.75;;;18.58;95.71
7824;BME280;3957;48.61947800;9.05303100;2023-07-09T03:41:22;96529.53;;;18.62;95.28
7824;BME280;3957;48.61947800;9.05303100;2023-07-09T03:42:24;96523.09;;;18.68;95.03
7824;BME280;3957;48.61947800;9.05303100;2023-07-09T03:43:26;96528.63;;;18.73;94.43
7824;BME280;3957;48.61947800;9.05303100;2023-07-09T03:44:27;96528.63;;;18.73;94.58
7824;BME280;3957;48.61947800;9.05303100;2023-07-09T03:45:29;96528.97;;;18.77;94.45
7824;BME280;3957;48.61947800;9.05303100;2023-07-09T03:46:31;96528.72;;;18.78;94.16
7824;BME280;3957;48.61947800;9.05303100;2023-07-09T03:47:33;96529.63;;;18.84;93.66
7824;BME280;3957;48.61947800;9.05303100;2023-07-09T03:48:35;96528.78;;;18.83;93.87
7824;BME280;3957;48.61947800;9.05303100;2023-07-09T03:49:37;96527.72;;;18.84;93.95
7824;BME280;3957;48.61947800;9.05303100;2023-07-09T03:50:39;96525.59;;;18.86;93.44
7824;BME280;3957;48.61947800;9.05303100;2023-07-09T03:51:41;96525.38;;;18.88;93.11
7824;BME280;3957;48.61947800;9.05303100;2023-07-09T03:52:42;96537.03;;;18.89;93.05
7824;BME280;3957;48.61947800;9.05303100;2023-07-09T03:53:44;96526.19;;;18.89;93.00
7824;BME280;3957;48.61947800;9.05303100;2023-07-09T03:54:45;96533.28;;;18.90;93.09
7824;BME280;3957;48.61947800;9.05303100;2023-07-09T03:55:51;96532.22;;;18.91;92.89
7824;BME280;3957;48.61947800;9.05303100;2023-07-09T03:56:53;96531.38;;;18.90;93.49
7824;BME280;3957;48.61947800;9.05303100;2023-07-09T03:57:56;96532.69;;;18.88;93.89
7824;BME280;3957;48.61947800;9.05303100;2023-07-09T03:58:57;96527.47;;;18.86;93.88
7824;BME280;3957;48.61947800;9.05303100;2023-07-09T03:59:59;96527.72;;;18.84;94.03
7824;BME280;3957;48.61947800;9.05303100;2023-07-09T04:01:01;96533.16;;;18.84;94.04
7824;BME280;3957;48.61947800;9.05303100;2023-07-09T04:02:03;96527.97;;;18.83;93.86
7824;BME280;3957;48.61947800;9.05303100;2023-07-09T04:03:05;96521.94;;;18.81;93.80
7824;BME280;3957;48.61947800;9.05303100;2023-07-09T04:04:09;96526.31;;;18.82;93.97
7824;BME280;3957;48.61947800;9.05303100;2023-07-09T04:05:11;96527.16;;;18.82;93.81
7824;BME280;3957;48.61947800;9.05303100;2023-07-09T04:06:13;96535.03;;;18.84;93.47
7824;BME280;3957;48.61947800;9.05303100;2023-07-09T04:07:15;96533.94;;;18.85;92.99
7824;BME280;3957;48.61947800;9.05303100;2023-07-09T04:08:21;96532.44;;;18.89;93.04
7824;BME280;3957;48.61947800;9.05303100;2023-07-09T04:09:22;96528.41;;;18.92;92.96
7824;BME280;3957;48.61947800;9.05303100;2023-07-09T04:10:24;96538.28;;;18.98;92.43
7824;BME280;3957;48.61947800;9.05303100;2023-07-09T04:11:25;96530.72;;;19.00;91.91
7824;BME280;3957;48.61947800;9.05303100;2023-07-09T04:12:27;96531.03;;;19.03;91.86
7824;BME280;3957;48.61947800;9.05303100;2023-07-09T04:13:29;96524.06;;;19.08;91.38
7824;BME280;3957;48.61947800;9.05303100;2023-07-09T04:14:31;96530.88;;;19.10;90.84
7824;BME280;3957;48.61947800;9.05303100;2023-07-09T04:15:32;96530.22;;;19.20;89.81
7824;BME280;3957;48.61947800;9.05303100;2023-07-09T04:16:34;96528.97;;;19.28;89.29
7824;BME280;3957;48.61947800;9.05303100;2023-07-09T04:17:36;96526.66;;;19.36;88.92
7824;BME280;3957;48.61947800;9.05303100;2023-07-09T04:18:37;96522.22;;;19.47;88.57
7824;BME280;3957;48.61947800;9.05303100;2023-07-09T04:19:39;96528.34;;;19.60;88.25
7824;BME280;3957;48.61947800;9.05303100;2023-07-09T04:20:41;96523.19;;;19.80;87.02
7824;BME280;3957;48.61947800;9.05303100;2023-07-09T04:21:42;96535.84;;;20.14;86.28
7824;BME280;3957;48.61947800;9.05303100;2023-07-09T04:22:44;96531.06;;;20.48;84.59
7824;BME280;3957;48.61947800;9.05303100;2023-07-09T04:23:45;96534.69;;;20.86;82.23
7824;BME280;3957;48.61947800;9.05303100;2023-07-09T04:24:50;96534.75;;;21.24;79.04
7824;BME280;3957;48.61947800;9.05303100;2023-07-09T04:25:53;96531.16;;;21.56;76.27
7824;BME280;3957;48.61947800;9.05303100;2023-07-09T04:26:54;96532.13;;;21.82;74.54
7824;BME280;3957;48.61947800;9.05303100;2023-07-09T04:27:57;96525.66;;;22.04;72.22
7824;BME280;3957;48.61947800;9.05303100;2023-07-09T04:29:00;96527.34;;;22.20;70.84
7824;BME280;3957;48.61947800;9.05303100;2023-07-09T04:30:02;96526.94;;;22.65;69.20
7824;BME280;3957;48.61947800;9.05303100;2023-07-09T04:31:06;96526.97;;;22.75;67.84
7824;BME280;3957;48.61947800;9.05303100;2023-07-09T04:32:13;96528.09;;;23.20;66.83
7824;BME280;3957;48.61947800;9.05303100;2023-07-09T04:33:17;96528.06;;;23.10;66.18
7824;BME280;3957;48.61947800;9.05303100;2023-07-09T04:34:19;96523.69;;;23.55;64.39
7824;BME280;3957;48.61947800;9.05303100;2023-07-09T04:35:20;96529.09;;;23.76;63.77
7824;BME280;3957;48.61947800;9.05303100;2023-07-09T04:36:22;96526.31;;;24.02;61.97
7824;BME280;3957;48.61947800;9.05303100;2023-07-09T04:37:24;96527.16;;;24.47;61.01
7824;BME280;3957;48.61947800;9.05303100;2023-07-09T04:38:25;96528.09;;;24.82;59.65
7824;BME280;3957;48.61947800;9.05303100;2023-07-09T04:39:29;96538.50;;;25.15;58.06
7824;BME280;3957;48.61947800;9.05303100;2023-07-09T04:40:30;96533.09;;;25.44;56.65
7824;BME280;3957;48.61947800;9.05303100;2023-07-09T04:41:32;96542.19;;;25.63;55.71
7824;BME280;3957;48.61947800;9.05303100;2023-07-09T04:42:34;96542.84;;;26.09;53.49
7824;BME280;3957;48.61947800;9.05303100;2023-07-09T04:43:35;96534.94;;;26.45;52.26
7824;BME280;3957;48.61947800;9.05303100;2023-07-09T04:44:37;96542.28;;;26.07;52.24
7824;BME280;3957;48.61947800;9.05303100;2023-07-09T04:45:39;96543.78;;;26.42;52.21
7824;BME280;3957;48.61947800;9.05303100;2023-07-09T04:46:41;96543.84;;;26.56;51.10
7824;BME280;3957;48.61947800;9.05303100;2023-07-09T04:47:42;96545.97;;;26.40;50.79
7824;BME280;3957;48.61947800;9.05303100;2023-07-09T04:48:44;96548.94;;;26.25;50.75
7824;BME280;3957;48.61947800;9.05303100;2023-07-09T04:49:46;96549.81;;;26.20;50.84
7824;BME280;3957;48.61947800;9.05303100;2023-07-09T04:50:48;96548.00;;;26.54;50.97
7824;BME280;3957;48.61947800;9.05303100;2023-07-09T04:51:51;96546.44;;;26.04;50.97
7824;BME280;3957;48.61947800;9.05303100;2023-07-09T04:52:53;96549.41;;;26.08;50.99
7824;BME280;3957;48.61947800;9.05303100;2023-07-09T04:53:54;96544.03;;;26.84;49.63
7824;BME280;3957;48.61947800;9.05303100;2023-07-09T04:54:56;96545.72;;;27.18;49.07
7824;BME280;3957;48.61947800;9.05303100;2023-07-09T04:55:57;96547.81;;;27.73;48.27
7824;BME280;3957;48.61947800;9.05303100;2023-07-09T04:56:59;96545.41;;;28.13;47.14
7824;BME280;3957;48.61947800;9.05303100;2023-07-09T04:58:01;96550.53;;;28.57;45.95
7824;BME280;3957;48.61947800;9.05303100;2023-07-09T04:59:03;96545.94;;;28.80;45.35
7824;BME280;3957;48.61947800;9.05303100;2023-07-09T05:00:05;96547.84;;;28.93;44.29
7824;BME280;3957;48.61947800;9.05303100;2023-07-09T05:01:06;96548.59;;;28.85;44.53